sensor_id;sensor_type;location;lat;lon;timestamp;pressure;altitude;pressure_sealevel;temperature;humidity
4199;BME280;2113;50.946;14.610;2023-02-12T00:01:15;98614.66;;;9.49;60.85
4199;BME280;2113;50.946;14.610;2023-02-12T00:03:45;98603.34;;;9.55;61.21
4199;BME280;2113;50.946;14.610;2023-02-12T00:06:14;98608.72;;;9.35;61.88
4199;BME280;2113;50.946;14.610;2023-02-12T00:08:42;98601.34;;;9.88;59.81
4199;BME280;2113;50.946;14.610;2023-02-12T00:11:13;98606.84;;;9.54;60.62
4199;BME280;2113;50.946;14.610;2023-02-12T00:13:42;98612.88;;;9.57;61.26
4199;BME280;2113;50.946;14.610;2023-02-12T00:16:12;98610.22;;;9.64;60.65
4199;BME280;2113;50.946;14.610;2023-02-12T00:18:41;98618.09;;;9.54;61.47
4199;BME280;2113;50.946;14.610;2023-02-12T00:21:11;98618.94;;;9.53;61.18
4199;BME280;2113;50.946;14.610;2023-02-12T00:23:40;98617.09;;;9.71;60.71
4199;BME280;2113;50.946;14.610;2023-02-12T00:26:10;98614.16;;;10.05;60.19
4199;BME280;2113;50.946;14.610;2023-02-12T00:28:45;98617.97;;;9.71;60.48
4199;BME280;2113;50.946;14.610;2023-02-12T00:31:15;98621.47;;;9.64;60.78
4199;BME280;2113;50.946;14.610;2023-02-12T00:33:44;98622.41;;;9.55;61.50
4199;BME280;2113;50.946;14.610;2023-02-12T00:36:15;98631.00;;;9.64;60.80
4199;BME280;2113;50.946;14.610;2023-02-12T00:38:45;98647.66;;;9.30;62.13
4199;BME280;2113;50.946;14.610;2023-02-12T00:41:13;98637.03;;;9.66;61.35
4199;BME280;2113;50.946;14.610;2023-02-12T00:43:41;98635.63;;;9.21;62.31
4199;BME280;2113;50.946;14.610;2023-02-12T00:46:10;98639.75;;;9.52;61.64
4199;BME280;2113;50.946;14.610;2023-02-12T00:48:38;98637.75;;;9.85;60.73
4199;BME280;2113;50.946;14.610;2023-02-12T00:51:07;98640.47;;;9.71;60.67
4199;BME280;2113;50.946;14.610;2023-02-12T00:53:36;98633.94;;;9.17;62.01
4199;BME280;2113;50.946;14.610;2023-02-12T00:56:06;98635.41;;;9.52;61.25
4199;BME280;2113;50.946;14.610;2023-02-12T00:58:34;98634.63;;;9.41;61.62
4199;BME280;2113;50.946;14.610;2023-02-12T01:01:02;98635.31;;;9.65;61.14
4199;BME280;2113;50.946;14.610;2023-02-12T01:03:31;98639.59;;;9.73;60.81
4199;BME280;2113;50.946;14.610;2023-02-12T01:05:59;98652.56;;;9.75;61.56
4199;BME280;2113;50.946;14.610;2023-02-12T01:08:28;98648.69;;;10.19;59.40
4199;BME280;2113;50.946;14.610;2023-02-12T01:11:00;98655.66;;;10.17;59.25
4199;BME280;2113;50.946;14.610;2023-02-12T01:13:29;98656.72;;;9.96;59.33
4199;BME280;2113;50.946;14.610;2023-02-12T01:16:08;98667.28;;;9.73;60.26
4199;BME280;2113;50.946;14.610;2023-02-12T01:18:40;98660.09;;;10.06;59.79
4199;BME280;2113;50.946;14.610;2023-02-12T01:21:11;98659.09;;;10.19;59.39
4199;BME280;2113;50.946;14.610;2023-02-12T01:23:39;98658.38;;;10.03;59.37
4199;BME280;2113;50.946;14.610;2023-02-12T01:26:09;98650.25;;;10.38;58.68
4199;BME280;2113;50.946;14.610;2023-02-12T01:28:38;98661.28;;;9.65;60.38
4199;BME280;2113;50.946;14.610;2023-02-12T01:31:09;98656.84;;;9.80;60.09
4199;BME280;2113;50.946;14.610;2023-02-12T01:33:37;98654.09;;;9.97;59.76
4199;BME280;2113;50.946;14.610;2023-02-12T01:36:07;98654.34;;;9.67;60.57
4199;BME280;2113;50.946;14.610;2023-02-12T01:38:35;98650.44;;;10.17;58.84
4199;BME280;2113;50.946;14.610;2023-02-12T01:41:04;98654.28;;;9.76;60.45
4199;BME280;2113;50.946;14.610;2023-02-12T01:43:35;98650.03;;;9.64;59.94
4199;BME280;2113;50.946;14.610;2023-02-12T01:46:05;98654.31;;;9.73;59.63
4199;BME280;2113;50.946;14.610;2023-02-12T01:48:36;98660.59;;;9.41;60.59
4199;BME280;2113;50.946;14.610;2023-02-12T01:51:08;98654.38;;;9.64;60.37
4199;BME280;2113;50.946;14.610;2023-02-12T01:53:40;98664.94;;;9.36;61.41
4199;BME280;2113;50.946;14.610;2023-02-12T01:56:10;98661.19;;;9.77;60.23
4199;BME280;2113;50.946;14.610;2023-02-12T01:58:43;98656.81;;;9.84;59.59
4199;BME280;2113;50.946;14.610;2023-02-12T02:01:17;98661.91;;;9.97;60.00
4199;BME280;2113;50.946;14.610;2023-02-12T02:03:49;98649.41;;;10.38;58.58
4199;BME280;2113;50.946;14.610;2023-02-12T02:06:22;98656.09;;;10.59;58.32
4199;BME280;2113;50.946;14.610;2023-02-12T02:08:54;98646.19;;;10.89;57.29
4199;BME280;2113;50.946;14.610;2023-02-12T02:11:24;98653.69;;;10.42;57.77
4199;BME280;2113;50.946;14.610;2023-02-12T02:14:11;98657.50;;;10.03;59.32
4199;BME280;2113;50.946;14.610;2023-02-12T02:17:12;98666.25;;;9.92;59.66
4199;BME280;2113;50.946;14.610;2023-02-12T02:19:55;98665.16;;;10.19;59.74
4199;BME280;2113;50.946;14.610;2023-02-12T02:22:33;98662.63;;;10.12;59.80
4199;BME280;2113;50.946;14.610;2023-02-12T02:25:29;98670.88;;;9.53;61.50
4199;BME280;2113;50.946;14.610;2023-02-12T02:28:09;98659.94;;;9.04;61.86
4199;BME280;2113;50.946;14.610;2023-02-12T02:30:43;98683.16;;;9.33;62.35
4199;BME280;2113;50.946;14.610;2023-02-12T02:33:34;98679.38;;;9.75;60.71
4199;BME280;2113;50.946;14.610;2023-02-12T02:36:14;98681.16;;;9.72;60.98
4199;BME280;2113;50.946;14.610;2023-02-12T02:38:49;98673.41;;;9.69;61.47
4199;BME280;2113;50.946;14.610;2023-02-12T02:41:24;98671.13;;;9.19;62.04
4199;BME280;2113;50.946;14.610;2023-02-12T02:43:54;98673.50;;;9.50;62.03
4199;BME280;2113;50.946;14.610;2023-02-12T02:46:27;98673.34;;;9.72;60.59
4199;BME280;2113;50.946;14.610;2023-02-12T02:48:59;98676.06;;;9.55;61.15
4199;BME280;2113;50.946;14.610;2023-02-12T02:51:32;98677.97;;;9.31;61.86
4199;BME280;2113;50.946;14.610;2023-02-12T02:54:04;98681.31;;;9.52;62.46
4199;BME280;2113;50.946;14.610;2023-02-12T02:56:37;98675.81;;;9.87;60.57
4199;BME280;2113;50.946;14.610;2023-02-12T02:59:09;98673.41;;;9.67;60.89
4199;BME280;2113;50.946;14.610;2023-02-12T03:01:43;98677.91;;;9.36;61.42
4199;BME280;2113;50.946;14.610;2023-02-12T03:04:17;98686.50;;;9.52;61.58
4199;BME280;2113;50.946;14.610;2023-02-12T03:06:53;98682.16;;;9.54;61.42
4199;BME280;2113;50.946;14.610;2023-02-12T03:09:27;98688.28;;;9.40;61.58
4199;BME280;2113;50.946;14.610;2023-02-12T03:12:02;98701.06;;;9.73;60.96
4199;BME280;2113;50.946;14.610;2023-02-12T03:14:35;98702.63;;;9.94;59.81
4199;BME280;2113;50.946;14.610;2023-02-12T03:17:09;98704.56;;;9.63;60.50
4199;BME280;2113;50.946;14.610;2023-02-12T03:19:41;98713.22;;;9.68;61.14
4199;BME280;2113;50.946;14.610;2023-02-12T03:22:16;98713.50;;;9.20;62.07
4199;BME280;2113;50.946;14.610;2023-02-12T03:24:47;98706.50;;;9.33;62.92
4199;BME280;2113;50.946;14.610;2023-02-12T03:27:20;98718.81;;;10.22;60.05
4199;BME280;2113;50.946;14.610;2023-02-12T03:29:51;98723.78;;;9.35;61.41
4199;BME280;2113;50.946;14.610;2023-02-12T03:32:29;98722.00;;;9.47;62.60
4199;BME280;2113;50.946;14.610;2023-02-12T03:35:09;98730.72;;;9.32;62.72
4199;BME280;2113;50.946;14.610;2023-02-12T03:37:46;98728.09;;;9.39;63.03
4199;BME280;2113;50.946;14.610;2023-02-12T03:40:21;98722.00;;;9.45;61.95
4199;BME280;2113;50.946;14.610;2023-02-12T03:42:57;98729.88;;;9.30;62.33
4199;BME280;2113;50.946;14.610;2023-02-12T03:45:37;98723.56;;;9.74;61.62
4199;BME280;2113;50.946;14.610;2023-02-12T03:48:12;98730.63;;;9.49;61.82
4199;BME280;2113;50.946;14.610;2023-02-12T03:50:50;98732.44;;;9.42;62.31
4199;BME280;2113;50.946;14.610;2023-02-12T03:53:20;98739.28;;;9.55;62.64
4199;BME280;2113;50.946;14.610;2023-02-12T03:55:53;98745.13;;;9.84;61.03
4199;BME280;2113;50.946;14.610;2023-02-12T03:58:48;98752.06;;;9.82;60.62
4199;BME280;2113;50.946;14.610;2023-02-12T04:01:16;98752.75;;;10.07;60.31
4199;BME280;2113;50.946;14.610;2023-02-12T04:03:46;98751.84;;;10.12;59.92
4199;BME280;2113;50.946;14.610;2023-02-12T04:06:19;98747.53;;;10.10;59.58
4199;BME280;2113;50.946;14.610;2023-02-12T04:08:48;98753.34;;;10.44;58.43
4199;BME280;2113;50.946;14.610;2023-02-12T04:11:24;98749.47;;;9.86;60.25
4199;BME280;2113;50.946;14.610;2023-02-12T04:14:07;98757.31;;;9.78;60.57
4199;BME280;2113;50.946;14.610;2023-02-12T04:16:42;98761.66;;;9.75;60.40
4199;BME280;2113;50.946;14.610;2023-02-12T04:19:19;98769.16;;;10.16;59.63
4199;BME280;2113;50.946;14.610;2023-02-12T04:21:55;98768.16;;;10.37;58.91
4199;BME280;2113;50.946;14.610;2023-02-12T04:24:32;98769.59;;;9.49;61.27
4199;BME280;2113;50.946;14.610;2023-02-12T04:27:09;98771.44;;;9.27;61.97
4199;BME280;2113;50.946;14.610;2023-02-12T04:29:44;98778.84;;;9.94;60.49
4199;BME280;2113;50.946;14.610;2023-02-12T04:32:19;98777.16;;;9.87;60.23
4199;BME280;2113;50.946;14.610;2023-02-12T04:34:54;98778.94;;;9.79;60.80
4199;BME280;2113;50.946;14.610;2023-02-12T04:37:29;98780.63;;;9.86;60.54
4199;BME280;2113;50.946;14.610;2023-02-12T04:40:02;98779.09;;;9.51;61.00
4199;BME280;2113;50.946;14.610;2023-02-12T04:42:40;98774.63;;;9.75;60.41
4199;BME280;2113;50.946;14.610;2023-02-12T04:45:09;98782.63;;;9.36;60.70
4199;BME280;2113;50.946;14.610;2023-02-12T04:47:37;98778.97;;;9.73;60.20
4199;BME280;2113;50.946;14.610;2023-02-12T04:50:08;98777.16;;;9.89;59.45
4199;BME280;2113;50.946;14.610;2023-02-12T04:52:37;98775.31;;;10.02;59.21
4199;BME280;2113;50.946;14.610;2023-02-12T04:55:05;98787.69;;;9.63;60.16
4199;BME280;2113;50.946;14.610;2023-02-12T04:57:33;98783.13;;;9.97;59.08
4199;BME280;2113;50.946;14.610;2023-02-12T05:00:03;98787.59;;;9.81;59.73
4199;BME280;2113;50.946;14.610;2023-02-12T05:02:32;98789.34;;;9.76;60.30
4199;BME280;2113;50.946;14.610;2023-02-12T05:05:01;98801.56;;;9.62;60.24
4199;BME280;2113;50.946;14.610;2023-02-12T05:07:30;98798.03;;;9.70;60.73
4199;BME280;2113;50.946;14.610;2023-02-12T05:09:59;98791.94;;;9.74;60.52
4199;BME280;2113;50.946;14.610;2023-02-12T05:12:27;98803.13;;;9.92;59.92
4199;BME280;2113;50.946;14.610;2023-02-12T05:14:56;98796.34;;;9.62;61.56
4199;BME280;2113;50.946;14.610;2023-02-12T05:17:24;98801.16;;;10.23;59.47
4199;BME280;2113;50.946;14.610;2023-02-12T05:19:53;98804.72;;;10.08;58.73
4199;BME280;2113;50.946;14.610;2023-02-12T05:22:21;98801.50;;;9.68;60.19
4199;BME280;2113;50.946;14.610;2023-02-12T05:24:51;98806.28;;;10.29;59.29
4199;BME280;2113;50.946;14.610;2023-02-12T05:27:19;98803.66;;;10.35;58.13
4199;BME280;2113;50.946;14.610;2023-02-12T05:29:47;98808.50;;;10.80;57.47
4199;BME280;2113;50.946;14.610;2023-02-12T05:32:15;98808.50;;;10.82;56.50
4199;BME280;2113;50.946;14.610;2023-02-12T05:34:43;98816.81;;;10.17;57.61
4199;BME280;2113;50.946;14.610;2023-02-12T05:37:12;98811.66;;;10.05;58.46
4199;BME280;2113;50.946;14.610;2023-02-12T05:39:40;98811.50;;;10.29;58.35
4199;BME280;2113;50.946;14.610;2023-02-12T05:42:10;98815.16;;;10.00;58.54
4199;BME280;2113;50.946;14.610;2023-02-12T05:44:38;98818.66;;;9.95;59.02
4199;BME280;2113;50.946;14.610;2023-02-12T05:47:06;98828.97;;;10.12;58.95
4199;BME280;2113;50.946;14.610;2023-02-12T05:49:34;98830.66;;;10.16;58.52
4199;BME280;2113;50.946;14.610;2023-02-12T05:52:02;98832.59;;;9.85;59.34
4199;BME280;2113;50.946;14.610;2023-02-12T05:54:31;98827.97;;;10.36;57.99
4199;BME280;2113;50.946;14.610;2023-02-12T05:56:59;98833.50;;;9.79;59.29
4199;BME280;2113;50.946;14.610;2023-02-12T05:59:28;98836.84;;;9.95;58.90
4199;BME280;2113;50.946;14.610;2023-02-12T06:01:57;98836.84;;;9.96;58.62
4199;BME280;2113;50.946;14.610;2023-02-12T06:04:28;98837.59;;;10.17;58.12
4199;BME280;2113;50.946;14.610;2023-02-12T06:06:56;98841.88;;;10.30;57.63
4199;BME280;2113;50.946;14.610;2023-02-12T06:09:24;98845.41;;;10.12;57.63
4199;BME280;2113;50.946;14.610;2023-02-12T06:11:52;98845.44;;;10.11;57.66
4199;BME280;2113;50.946;14.610;2023-02-12T06:14:20;98854.19;;;9.96;58.16
4199;BME280;2113;50.946;14.610;2023-02-12T06:16:50;98855.00;;;10.03;58.18
4199;BME280;2113;50.946;14.610;2023-02-12T06:19:19;98866.47;;;9.58;59.18
4199;BME280;2113;50.946;14.610;2023-02-12T06:21:47;98858.72;;;9.55;59.48
4199;BME280;2113;50.946;14.610;2023-02-12T06:24:16;98861.91;;;10.07;58.24
4199;BME280;2113;50.946;14.610;2023-02-12T06:26:45;98863.69;;;10.02;58.26
4199;BME280;2113;50.946;14.610;2023-02-12T06:29:16;98871.38;;;10.17;57.64
4199;BME280;2113;50.946;14.610;2023-02-12T06:31:44;98881.97;;;9.86;58.33
4199;BME280;2113;50.946;14.610;2023-02-12T06:34:14;98878.28;;;10.19;57.91
4199;BME280;2113;50.946;14.610;2023-02-12T06:36:45;98882.59;;;10.25;57.44
4199;BME280;2113;50.946;14.610;2023-02-12T06:39:15;98882.53;;;10.39;57.10
4199;BME280;2113;50.946;14.610;2023-02-12T06:41:43;98886.19;;;10.01;57.09
4199;BME280;2113;50.946;14.610;2023-02-12T06:44:12;98893.38;;;9.42;59.00
4199;BME280;2113;50.946;14.610;2023-02-12T06:46:40;98897.50;;;9.91;58.40
4199;BME280;2113;50.946;14.610;2023-02-12T06:49:11;98895.78;;;9.90;58.33
4199;BME280;2113;50.946;14.610;2023-02-12T06:51:41;98896.59;;;9.99;57.75
4199;BME280;2113;50.946;14.610;2023-02-12T06:54:13;98904.38;;;10.04;57.76
4199;BME280;2113;50.946;14.610;2023-02-12T06:56:41;98904.13;;;10.50;56.83
4199;BME280;2113;50.946;14.610;2023-02-12T06:59:12;98901.56;;;10.46;57.10
4199;BME280;2113;50.946;14.610;2023-02-12T07:01:41;98908.47;;;10.47;56.65
4199;BME280;2113;50.946;14.610;2023-02-12T07:04:10;98913.78;;;10.24;57.03
4199;BME280;2113;50.946;14.610;2023-02-12T07:06:38;98919.88;;;10.19;56.92
4199;BME280;2113;50.946;14.610;2023-02-12T07:09:08;98907.59;;;10.48;56.67
4199;BME280;2113;50.946;14.610;2023-02-12T07:11:36;98932.78;;;10.43;56.44
4199;BME280;2113;50.946;14.610;2023-02-12T07:14:05;98926.63;;;10.56;56.55
4199;BME280;2113;50.946;14.610;2023-02-12T07:16:33;98926.75;;;10.36;56.94
4199;BME280;2113;50.946;14.610;2023-02-12T07:19:02;98924.84;;;10.61;56.34
4199;BME280;2113;50.946;14.610;2023-02-12T07:21:31;98925.75;;;10.57;56.08
4199;BME280;2113;50.946;14.610;2023-02-12T07:23:59;98931.97;;;10.25;56.69
4199;BME280;2113;50.946;14.610;2023-02-12T07:26:30;98928.53;;;10.23;57.07
4199;BME280;2113;50.946;14.610;2023-02-12T07:28:58;98929.22;;;10.59;56.18
4199;BME280;2113;50.946;14.610;2023-02-12T07:31:26;98932.53;;;10.76;55.75
4199;BME280;2113;50.946;14.610;2023-02-12T07:33:56;98942.28;;;10.48;56.08
4199;BME280;2113;50.946;14.610;2023-02-12T07:36:29;98938.81;;;10.49;56.74
4199;BME280;2113;50.946;14.610;2023-02-12T07:38:58;98941.47;;;10.42;56.50
4199;BME280;2113;50.946;14.610;2023-02-12T07:41:30;98944.75;;;10.65;56.34
4199;BME280;2113;50.946;14.610;2023-02-12T07:44:00;98952.44;;;10.82;55.75
4199;BME280;2113;50.946;14.610;2023-02-12T07:46:31;98947.97;;;10.98;55.37
4199;BME280;2113;50.946;14.610;2023-02-12T07:49:01;98947.97;;;10.98;55.06
4199;BME280;2113;50.946;14.610;2023-02-12T07:51:30;98948.72;;;11.12;54.60
4199;BME280;2113;50.946;14.610;2023-02-12T07:53:59;98955.50;;;11.30;54.23
4199;BME280;2113;50.946;14.610;2023-02-12T07:56:31;98955.69;;;11.09;54.73
4199;BME280;2113;50.946;14.610;2023-02-12T07:59:04;98958.50;;;10.83;55.11
4199;BME280;2113;50.946;14.610;2023-02-12T08:01:34;98961.97;;;10.85;55.70
4199;BME280;2113;50.946;14.610;2023-02-12T08:04:04;98955.03;;;10.84;55.90
4199;BME280;2113;50.946;14.610;2023-02-12T08:06:36;98961.94;;;10.88;55.75
4199;BME280;2113;50.946;14.610;2023-02-12T08:09:07;98967.09;;;10.91;55.59
4199;BME280;2113;50.946;14.610;2023-02-12T08:11:38;98965.34;;;10.96;55.70
4199;BME280;2113;50.946;14.610;2023-02-12T08:14:09;98967.03;;;11.00;55.47
4199;BME280;2113;50.946;14.610;2023-02-12T08:16:40;98971.50;;;10.84;55.55
4199;BME280;2113;50.946;14.610;2023-02-12T08:19:09;98967.88;;;11.05;55.74
4199;BME280;2113;50.946;14.610;2023-02-12T08:21:48;98970.78;;;10.68;56.13
4199;BME280;2113;50.946;14.610;2023-02-12T08:24:17;98969.75;;;10.85;56.24
4199;BME280;2113;50.946;14.610;2023-02-12T08:26:49;98979.38;;;10.80;56.66
4199;BME280;2113;50.946;14.610;2023-02-12T08:29:19;98982.66;;;10.98;56.61
4199;BME280;2113;50.946;14.610;2023-02-12T08:31:48;98983.53;;;11.01;56.57
4199;BME280;2113;50.946;14.610;2023-02-12T08:34:19;98991.44;;;10.88;56.91
4199;BME280;2113;50.946;14.610;2023-02-12T08:36:50;98979.91;;;11.19;56.64
4199;BME280;2113;50.946;14.610;2023-02-12T08:39:20;98973.31;;;11.72;55.70
4199;BME280;2113;50.946;14.610;2023-02-12T08:41:50;98982.31;;;12.21;55.19
4199;BME280;2113;50.946;14.610;2023-02-12T08:44:21;98988.09;;;11.70;55.44
4199;BME280;2113;50.946;14.610;2023-02-12T08:46:51;98992.72;;;12.24;54.49
4199;BME280;2113;50.946;14.610;2023-02-12T08:49:23;98993.78;;;11.22;56.73
4199;BME280;2113;50.946;14.610;2023-02-12T08:51:54;99001.50;;;11.30;57.08
4199;BME280;2113;50.946;14.610;2023-02-12T08:54:24;98997.22;;;11.27;56.77
4199;BME280;2113;50.946;14.610;2023-02-12T08:56:55;99003.75;;;11.70;55.76
4199;BME280;2113;50.946;14.610;2023-02-12T08:59:24;99011.16;;;12.10;55.38
4199;BME280;2113;50.946;14.610;2023-02-12T09:01:52;99010.53;;;11.83;55.52
4199;BME280;2113;50.946;14.610;2023-02-12T09:04:22;99011.66;;;11.61;56.90
4199;BME280;2113;50.946;14.610;2023-02-12T09:06:51;99007.34;;;11.55;56.93
4199;BME280;2113;50.946;14.610;2023-02-12T09:09:20;99015.78;;;11.79;57.09
4199;BME280;2113;50.946;14.610;2023-02-12T09:11:48;99011.88;;;11.33;56.68
4199;BME280;2113;50.946;14.610;2023-02-12T09:14:18;99018.72;;;11.46;56.51
4199;BME280;2113;50.946;14.610;2023-02-12T09:16:50;99006.91;;;11.08;57.25
4199;BME280;2113;50.946;14.610;2023-02-12T09:19:19;99015.03;;;11.69;56.20
4199;BME280;2113;50.946;14.610;2023-02-12T09:21:50;99005.88;;;12.13;55.84
4199;BME280;2113;50.946;14.610;2023-02-12T09:24:22;99009.09;;;12.33;54.29
4199;BME280;2113;50.946;14.610;2023-02-12T09:26:50;99013.38;;;12.41;54.28
4199;BME280;2113;50.946;14.610;2023-02-12T09:29:19;99021.00;;;12.56;53.30
4199;BME280;2113;50.946;14.610;2023-02-12T09:31:47;99017.88;;;12.26;53.77
4199;BME280;2113;50.946;14.610;2023-02-12T09:34:16;99022.88;;;12.45;53.49
4199;BME280;2113;50.946;14.610;2023-02-12T09:36:45;99032.03;;;12.07;54.12
4199;BME280;2113;50.946;14.610;2023-02-12T09:39:13;99031.44;;;12.56;53.31
4199;BME280;2113;50.946;14.610;2023-02-12T09:42:17;99026.53;;;12.30;53.89
4199;BME280;2113;50.946;14.610;2023-02-12T09:44:54;99035.09;;;12.43;53.64
4199;BME280;2113;50.946;14.610;2023-02-12T09:47:31;99037.66;;;12.46;53.06
4199;BME280;2113;50.946;14.610;2023-02-12T09:50:21;99031.50;;;12.51;53.42
4199;BME280;2113;50.946;14.610;2023-02-12T09:52:54;99043.53;;;12.63;52.91
4199;BME280;2113;50.946;14.610;2023-02-12T09:55:26;99044.31;;;11.95;54.86
4199;BME280;2113;50.946;14.610;2023-02-12T09:57:56;99035.59;;;12.69;53.23
4199;BME280;2113;50.946;14.610;2023-02-12T10:00:28;99048.94;;;12.48;53.49
4199;BME280;2113;50.946;14.610;2023-02-12T10:03:00;99051.28;;;12.66;53.07
4199;BME280;2113;50.946;14.610;2023-02-12T10:05:34;99053.13;;;12.61;53.32
4199;BME280;2113;50.946;14.610;2023-02-12T10:08:17;99055.47;;;12.11;54.43
4199;BME280;2113;50.946;14.610;2023-02-12T10:10:52;99055.38;;;12.19;53.93
4199;BME280;2113;50.946;14.610;2023-02-12T10:13:29;99057.16;;;12.16;53.77
4199;BME280;2113;50.946;14.610;2023-02-12T10:16:11;99061.69;;;11.97;54.56
4199;BME280;2113;50.946;14.610;2023-02-12T10:18:54;99065.00;;;12.11;54.15
4199;BME280;2113;50.946;14.610;2023-02-12T10:21:44;99058.28;;;11.91;54.68
4199;BME280;2113;50.946;14.610;2023-02-12T10:24:42;99065.22;;;11.86;54.91
4199;BME280;2113;50.946;14.610;2023-02-12T10:27:16;99063.06;;;12.28;54.27
4199;BME280;2113;50.946;14.610;2023-02-12T10:29:47;99056.66;;;12.56;52.92
4199;BME280;2113;50.946;14.610;2023-02-12T10:32:23;99050.81;;;13.02;51.79
4199;BME280;2113;50.946;14.610;2023-02-12T10:34:55;99062.53;;;12.73;52.08
4199;BME280;2113;50.946;14.610;2023-02-12T10:37:29;99053.06;;;13.25;51.43
4199;BME280;2113;50.946;14.610;2023-02-12T10:40:03;99053.44;;;13.56;50.45
4199;BME280;2113;50.946;14.610;2023-02-12T10:42:36;99052.63;;;12.95;51.13
4199;BME280;2113;50.946;14.610;2023-02-12T10:45:12;99053.69;;;12.82;51.50
4199;BME280;2113;50.946;14.610;2023-02-12T10:47:45;99054.53;;;12.84;51.97
4199;BME280;2113;50.946;14.610;2023-02-12T10:50:31;99050.56;;;13.17;51.72
4199;BME280;2113;50.946;14.610;2023-02-12T10:53:02;99054.09;;;12.51;52.57
4199;BME280;2113;50.946;14.610;2023-02-12T10:55:32;99060.16;;;12.54;52.80
4199;BME280;2113;50.946;14.610;2023-02-12T10:58:02;99053.78;;;12.06;53.58
4199;BME280;2113;50.946;14.610;2023-02-12T11:00:32;99047.19;;;12.47;52.92
4199;BME280;2113;50.946;14.610;2023-02-12T11:03:07;99052.50;;;12.41;53.13
4199;BME280;2113;50.946;14.610;2023-02-12T11:05:46;99040.59;;;12.18;53.03
4199;BME280;2113;50.946;14.610;2023-02-12T11:08:28;99046.28;;;12.49;53.08
4199;BME280;2113;50.946;14.610;2023-02-12T11:11:09;99026.47;;;13.00;51.06
4199;BME280;2113;50.946;14.610;2023-02-12T11:13:40;99041.00;;;12.56;52.79
4199;BME280;2113;50.946;14.610;2023-02-12T11:16:11;99041.78;;;12.62;52.43
4199;BME280;2113;50.946;14.610;2023-02-12T11:18:42;99034.78;;;12.64;52.81
4199;BME280;2113;50.946;14.610;2023-02-12T11:21:11;99034.91;;;12.55;52.67
4199;BME280;2113;50.946;14.610;2023-02-12T11:23:42;99035.91;;;12.45;52.82
4199;BME280;2113;50.946;14.610;2023-02-12T11:26:23;99041.56;;;12.78;52.25
4199;BME280;2113;50.946;14.610;2023-02-12T11:28:54;99036.84;;;13.03;51.42
4199;BME280;2113;50.946;14.610;2023-02-12T11:31:25;99050.47;;;12.63;51.78
4199;BME280;2113;50.946;14.610;2023-02-12T11:34:16;99047.84;;;12.64;51.66
4199;BME280;2113;50.946;14.610;2023-02-12T11:36:48;99050.56;;;12.55;52.57
4199;BME280;2113;50.946;14.610;2023-02-12T11:39:19;99035.88;;;13.08;51.16
4199;BME280;2113;50.946;14.610;2023-02-12T11:41:51;99036.19;;;12.90;51.11
4199;BME280;2113;50.946;14.610;2023-02-12T11:44:22;99040.09;;;12.58;51.42
4199;BME280;2113;50.946;14.610;2023-02-12T11:46:54;99032.91;;;12.76;51.83
4199;BME280;2113;50.946;14.610;2023-02-12T11:49:28;99031.09;;;12.81;51.92
4199;BME280;2113;50.946;14.610;2023-02-12T11:52:00;99027.09;;;13.14;50.92
4199;BME280;2113;50.946;14.610;2023-02-12T11:54:36;99028.81;;;13.17;50.16
4199;BME280;2113;50.946;14.610;2023-02-12T11:57:09;99023.09;;;13.47;49.80
4199;BME280;2113;50.946;14.610;2023-02-12T11:59:41;99022.69;;;13.18;50.46
4199;BME280;2113;50.946;14.610;2023-02-12T12:02:17;99028.06;;;13.63;49.50
4199;BME280;2113;50.946;14.610;2023-02-12T12:04:53;99025.16;;;13.30;50.26
4199;BME280;2113;50.946;14.610;2023-02-12T12:07:26;99009.72;;;13.11;49.54
4199;BME280;2113;50.946;14.610;2023-02-12T12:09:59;99024.03;;;12.86;49.59
4199;BME280;2113;50.946;14.610;2023-02-12T12:12:34;99025.34;;;12.56;50.23
4199;BME280;2113;50.946;14.610;2023-02-12T12:15:10;99033.19;;;12.54;50.20
4199;BME280;2113;50.946;14.610;2023-02-12T12:18:08;99022.69;;;12.57;49.64
4199;BME280;2113;50.946;14.610;2023-02-12T12:21:08;99024.56;;;12.47;49.69
4199;BME280;2113;50.946;14.610;2023-02-12T12:23:43;99026.63;;;12.22;50.50
4199;BME280;2113;50.946;14.610;2023-02-12T12:26:17;99031.91;;;12.18;50.14
4199;BME280;2113;50.946;14.610;2023-02-12T12:28:52;99025.06;;;12.74;49.66
4199;BME280;2113;50.946;14.610;2023-02-12T12:31:26;99028.41;;;12.19;50.73
4199;BME280;2113;50.946;14.610;2023-02-12T12:34:01;99034.03;;;11.80;52.40
4199;BME280;2113;50.946;14.610;2023-02-12T12:37:01;99021.13;;;11.68;52.72
4199;BME280;2113;50.946;14.610;2023-02-12T12:39:35;99018.13;;;12.08;51.93
4199;BME280;2113;50.946;14.610;2023-02-12T12:45:12;99015.75;;;11.83;52.71
4199;BME280;2113;50.946;14.610;2023-02-12T12:47:57;99011.78;;;11.47;54.19
4199;BME280;2113;50.946;14.610;2023-02-12T12:50:46;99009.50;;;11.08;55.06
4199;BME280;2113;50.946;14.610;2023-02-12T12:53:29;99006.78;;;11.21;55.19
4199;BME280;2113;50.946;14.610;2023-02-12T12:56:12;99001.56;;;11.24;54.76
4199;BME280;2113;50.946;14.610;2023-02-12T12:58:54;99010.66;;;11.71;54.51
4199;BME280;2113;50.946;14.610;2023-02-12T13:01:48;99005.19;;;11.04;55.29
4199;BME280;2113;50.946;14.610;2023-02-12T13:04:48;99008.19;;;11.59;53.94
4199;BME280;2113;50.946;14.610;2023-02-12T13:07:32;99004.44;;;11.86;54.17
4199;BME280;2113;50.946;14.610;2023-02-12T13:10:14;99014.47;;;11.38;54.72
4199;BME280;2113;50.946;14.610;2023-02-12T13:12:56;99001.47;;;11.33;54.56
4199;BME280;2113;50.946;14.610;2023-02-12T13:15:33;98997.13;;;11.35;55.20
4199;BME280;2113;50.946;14.610;2023-02-12T13:18:13;98999.91;;;11.13;55.39
4199;BME280;2113;50.946;14.610;2023-02-12T13:20:48;98992.63;;;11.52;55.22
4199;BME280;2113;50.946;14.610;2023-02-12T13:23:23;98998.38;;;11.81;54.36
4199;BME280;2113;50.946;14.610;2023-02-12T13:26:03;98993.31;;;11.70;54.40
4199;BME280;2113;50.946;14.610;2023-02-12T13:28:37;98996.31;;;11.27;54.66
4199;BME280;2113;50.946;14.610;2023-02-12T13:31:08;98998.13;;;11.22;55.05
4199;BME280;2113;50.946;14.610;2023-02-12T13:34:00;98993.97;;;10.96;55.04
4199;BME280;2113;50.946;14.610;2023-02-12T13:36:29;98996.69;;;10.77;55.44
4199;BME280;2113;50.946;14.610;2023-02-12T13:39:03;98995.41;;;11.31;54.31
4199;BME280;2113;50.946;14.610;2023-02-12T13:41:35;99002.06;;;11.63;53.19
4199;BME280;2113;50.946;14.610;2023-02-12T13:44:12;98997.69;;;11.68;52.74
4199;BME280;2113;50.946;14.610;2023-02-12T13:46:50;98995.75;;;11.85;52.95
4199;BME280;2113;50.946;14.610;2023-02-12T13:49:31;98995.78;;;11.82;52.89